Aviation Digital Data Service (ADDS)

Output produced by METARs form (0248 UTC 03 July 2022)
found at http://aviationweather.gov/metar/data/
 
METAR text: EHGG 030225Z AUTO 16001KT 9999 NCD 12/11 Q1016
Conditions at: EHGG (GRONINGEN/EELDE , NL) observed 0225 UTC 03 July 2022
Temperature: 12.0°C (54°F)
Dewpoint: 11.0°C (52°F) [RH = 94%]
Pressure (altimeter): 30.00 inches Hg (1016.0 mb)
Winds: from the SSE (160 degrees) at 1 MPH (1 knots; 0.5 m/s)
Visibility: 6 or more miles (10+ km)
Ceiling: at least 12,000 feet AGL
Clouds: sky clear below 12,000 feet AGL
Weather: no significant weather observed at this time

METAR text: EHGG 030155Z AUTO VRB01KT 9999 NSC 13/13 Q1016
Conditions at: EHGG (GRONINGEN/EELDE , NL) observed 0155 UTC 03 July 2022
Temperature: 13.0°C (55°F)
Dewpoint: 13.0°C (55°F) [RH = 100%]
Pressure (altimeter): 30.00 inches Hg (1016.0 mb)
Winds: variable direction winds at 1 MPH (1 knots; 0.5 m/s)
Visibility: 6 or more miles (10+ km)
Ceiling: at least 12,000 feet AGL
Clouds: sky clear below 12,000 feet AGL
Weather: no significant weather observed at this time

Forecast for: EHGG (GRONINGEN/EELDE , NL)
Text: TAF EHGG 022303Z 0300/0406 VRB01KT CAVOK
Forecast period: 0000 to 0900 UTC 03 July 2022
Forecast type: FROM: standard forecast or significant change
Winds: variable direction winds at 1 MPH (1 knots; 0.5 m/s)
Visibility: 6 or more miles (10+ km)
Ceiling: unknown
Clouds: missing
Weather: NSW  (no significant weather)
Text: BECMG 0309/0312 27010KT
Forecast period: 0900 to 1800 UTC 03 July 2022
Forecast type: BECOMING: Conditions expected to become as follows by 1200 UTC 03 July 2022
Winds: from the W (270 degrees) at 12 MPH (10 knots; 5.1 m/s)
Visibility: 6 or more miles (10+ km)
Ceiling: unknown
Clouds: missing
Weather: NSW  (no significant weather)
Text: PROB30
Forecast period: 1200 to 1600 UTC 03 July 2022
Forecast type: TEMPORARY: The following changes expected for less than half the time period
Visibility: 4 miles (6 km)
Ceiling: at least 12,000 feet AGL
Clouds: scattered clouds at 3000 feet AGL
Weather: SHRA  (rain showers)
Text: TEMPO 0312/0316 6000 SHRA SCT030CB
Forecast period: 1800 UTC 03 July 2022 to 0600 UTC 04 July 2022
Forecast type: BECOMING: Conditions expected to become as follows by 2100 UTC 03 July 2022
Winds: from the WSW (240 degrees) at 6 MPH (5 knots; 2.6 m/s)
Visibility: 6 or more miles (10+ km)
Ceiling: unknown
Clouds: missing
Weather: NSW  (no significant weather)